createdAt,value
2018-11-04T00:00:02.771Z,92.47
2018-11-04T00:05:00.101Z,92.96
2018-11-04T00:09:58.856Z,93.13
2018-11-04T00:14:56.311Z,92.49
2018-11-04T00:19:54.853Z,93.64
2018-11-04T00:24:52.349Z,93.72
2018-11-04T00:29:49.977Z,94.61
2018-11-04T00:34:47.363Z,94.70
2018-11-04T00:39:44.790Z,93.75
2018-11-04T00:44:42.240Z,94.86
2018-11-04T00:49:39.664Z,94.84
2018-11-04T00:54:37.102Z,93.82
2018-11-04T00:59:34.535Z,92.61
2018-11-04T01:04:31.952Z,92.45
2018-11-04T01:09:32.392Z,93.18
2018-11-04T01:14:29.909Z,93.72
2018-11-04T01:19:27.328Z,92.29
2018-11-04T01:24:24.831Z,92.82
2018-11-04T01:29:22.192Z,92.44
2018-11-04T01:34:19.644Z,92.42
2018-11-04T01:39:17.063Z,92.53
2018-11-04T01:44:14.496Z,93.10
2018-11-04T01:49:11.969Z,92.84
2018-11-04T01:54:09.398Z,92.62
2018-11-04T01:59:06.894Z,92.75
2018-11-04T02:04:04.604Z,93.32
2018-11-04T02:09:02.122Z,92.79
2018-11-04T02:13:59.546Z,92.44
2018-11-04T02:18:57.009Z,93.62
2018-11-04T02:23:54.428Z,93.80
2018-11-04T02:28:51.851Z,93.62
2018-11-04T02:33:49.292Z,93.65
2018-11-04T02:38:46.708Z,93.68
2018-11-04T02:43:44.121Z,93.78
2018-11-04T02:48:41.543Z,93.61
2018-11-04T02:53:38.977Z,93.97
2018-11-04T02:58:36.421Z,93.37
2018-11-04T03:03:33.848Z,94.02
2018-11-04T03:08:31.273Z,94.34
2018-11-04T03:13:28.756Z,94.78
2018-11-04T03:18:26.198Z,93.42
2018-11-04T03:23:23.640Z,94.35
2018-11-04T03:28:21.102Z,93.57
2018-11-04T03:33:18.536Z,93.89
2018-11-04T03:38:15.968Z,93.60
2018-11-04T03:43:13.408Z,94.17
2018-11-04T03:48:10.845Z,93.95
2018-11-04T03:53:08.307Z,93.81
2018-11-04T03:58:05.742Z,94.86
2018-11-04T04:03:03.186Z,94.65
2018-11-04T04:08:00.608Z,94.21
2018-11-04T04:12:58.074Z,94.54
2018-11-04T04:17:55.510Z,94.87
2018-11-04T04:22:52.950Z,93.63
2018-11-04T04:27:50.397Z,93.94
2018-11-04T04:32:47.833Z,94.12
2018-11-04T04:37:45.292Z,93.89
2018-11-04T04:42:42.721Z,94.21
2018-11-04T04:47:40.148Z,94.87
2018-11-04T04:52:37.581Z,93.28
2018-11-04T04:57:35.016Z,94.13
2018-11-04T05:02:32.456Z,95.08
2018-11-04T05:07:29.893Z,94.91
2018-11-04T05:12:27.402Z,94.35
2018-11-04T05:17:24.856Z,94.46
2018-11-04T05:22:22.345Z,94.81
2018-11-04T05:27:19.776Z,94.73
2018-11-04T05:32:17.209Z,94.99
2018-11-04T05:37:14.693Z,94.84
2018-11-04T05:42:12.131Z,94.04
2018-11-04T05:47:09.605Z,94.31
2018-11-04T05:52:07.094Z,93.94
2018-11-04T05:57:05.233Z,94.61
2018-11-04T06:02:02.692Z,94.52
2018-11-04T06:07:00.313Z,94.26
2018-11-04T06:11:58.250Z,94.38
2018-11-04T06:16:56.666Z,93.83
2018-11-04T06:21:54.139Z,93.72
2018-11-04T06:26:51.612Z,94.18
2018-11-04T06:31:49.076Z,94.30
2018-11-04T06:36:46.540Z,94.20
2018-11-04T06:41:43.996Z,94.48
2018-11-04T06:46:42.627Z,93.52
2018-11-04T06:51:40.091Z,94.13
2018-11-04T06:56:37.590Z,94.38
2018-11-04T07:01:35.053Z,93.78
2018-11-04T07:06:32.520Z,94.64
2018-11-04T07:11:30.005Z,93.65
2018-11-04T07:16:32.111Z,92.88
2018-11-04T07:21:29.555Z,91.62
2018-11-04T07:26:27.023Z,91.72
2018-11-04T07:31:24.558Z,91.12
2018-11-04T07:36:22.058Z,91.59
2018-11-04T07:41:19.980Z,90.33
2018-11-04T07:46:23.271Z,91.03
2018-11-04T07:51:20.774Z,91.05
2018-11-04T07:56:18.205Z,90.50
2018-11-04T08:01:15.759Z,90.67
2018-11-04T08:06:13.202Z,90.85
2018-11-04T08:11:10.693Z,90.50
2018-11-04T08:16:12.974Z,88.42
2018-11-04T08:21:10.416Z,88.37
2018-11-04T08:26:07.914Z,88.07
2018-11-04T08:31:05.569Z,87.63
2018-11-04T08:36:03.040Z,87.31
2018-11-04T08:41:00.520Z,87.26
2018-11-04T08:46:09.631Z,86.48
2018-11-04T08:51:07.483Z,86.00
2018-11-04T08:56:05.220Z,86.37
2018-11-04T09:01:02.671Z,85.26
2018-11-04T09:06:00.173Z,85.13
2018-11-04T09:10:57.614Z,85.07
2018-11-04T09:16:02.884Z,84.21
2018-11-04T09:21:00.495Z,83.57
2018-11-04T09:25:57.956Z,83.21
2018-11-04T09:30:55.408Z,82.65
2018-11-04T09:35:53.116Z,82.68
2018-11-04T09:40:50.366Z,82.30
2018-11-04T09:46:01.878Z,82.53
2018-11-04T09:51:02.753Z,82.10
2018-11-04T09:56:02.531Z,80.95
2018-11-04T10:01:00.118Z,80.93
2018-11-04T10:05:57.653Z,80.37
2018-11-04T10:10:55.108Z,79.99
2018-11-04T10:15:55.298Z,80.29
2018-11-04T10:20:53.395Z,80.05
2018-11-04T10:25:50.391Z,79.76
2018-11-04T10:30:47.865Z,79.96
2018-11-04T10:35:45.345Z,79.91
2018-11-04T10:40:42.780Z,78.72
2018-11-04T10:45:43.456Z,78.89
2018-11-04T10:50:40.978Z,78.68
2018-11-04T10:55:38.489Z,78.36
2018-11-04T11:00:41.638Z,78.03
2018-11-04T11:05:39.097Z,78.01
2018-11-04T11:10:36.573Z,78.13
2018-11-04T11:15:34.032Z,78.00
2018-11-04T11:20:31.518Z,77.53
2018-11-04T11:25:28.953Z,78.29
2018-11-04T11:30:26.456Z,76.81
2018-11-04T11:35:23.913Z,76.95
2018-11-04T11:40:21.408Z,76.19
2018-11-04T11:45:22.468Z,76.26
2018-11-04T11:50:19.926Z,76.11
2018-11-04T11:55:21.269Z,77.28
2018-11-04T12:00:23.559Z,76.87
2018-11-04T12:10:29.132Z,76.37
2018-11-04T12:15:26.661Z,76.81
2018-11-04T12:20:24.100Z,75.96
2018-11-04T12:25:21.571Z,76.58
2018-11-04T12:30:19.090Z,76.35
2018-11-04T12:35:16.600Z,76.08
2018-11-04T12:40:14.075Z,76.53
2018-11-04T12:45:12.485Z,77.19
2018-11-04T12:50:10.876Z,76.38
2018-11-04T12:55:09.861Z,76.31
2018-11-04T13:00:10.617Z,76.95
2018-11-04T13:05:09.034Z,76.52
2018-11-04T13:10:08.369Z,76.25
2018-11-04T13:15:06.558Z,76.55
2018-11-04T13:20:04.384Z,76.69
2018-11-04T13:25:01.856Z,77.02
2018-11-04T13:29:59.332Z,76.53
2018-11-04T13:34:56.848Z,76.51
2018-11-04T13:39:54.313Z,76.60
2018-11-04T13:44:51.824Z,77.33
2018-11-04T13:49:49.250Z,77.71
2018-11-04T13:54:47.046Z,77.40
2018-11-04T13:59:44.515Z,76.06
2018-11-04T14:04:41.958Z,77.17
2018-11-04T14:09:39.418Z,77.05
2018-11-04T14:14:36.872Z,77.00
2018-11-04T14:19:34.392Z,76.87
2018-11-04T14:24:31.856Z,76.37
2018-11-04T14:29:29.301Z,76.77
2018-11-04T14:34:26.748Z,76.85
2018-11-04T14:39:24.222Z,77.50
2018-11-04T14:44:21.687Z,77.89
2018-11-04T14:49:19.221Z,77.89
2018-11-04T14:54:17.138Z,78.10
2018-11-04T14:59:14.633Z,77.88
2018-11-04T15:04:12.097Z,78.30
2018-11-04T15:09:09.584Z,78.63
2018-11-04T15:14:07.064Z,79.22
2018-11-04T15:19:04.760Z,78.68
2018-11-04T15:24:02.218Z,78.84
2018-11-04T15:28:59.658Z,80.08
2018-11-04T15:33:57.152Z,79.60
2018-11-04T15:38:54.600Z,79.63
2018-11-04T15:43:52.145Z,79.39
2018-11-04T15:48:49.720Z,80.08
2018-11-04T15:53:47.192Z,80.77
2018-11-04T15:58:44.631Z,80.13
2018-11-04T16:03:42.092Z,80.03
2018-11-04T16:08:39.550Z,80.24
2018-11-04T16:13:37.012Z,80.50
2018-11-04T16:18:34.554Z,81.18
2018-11-04T16:23:32.034Z,80.22
2018-11-04T16:28:30.332Z,79.52
2018-11-04T16:33:27.862Z,79.10
2018-11-04T16:38:25.327Z,79.39
2018-11-04T16:43:22.850Z,79.13
2018-11-04T16:48:20.224Z,78.94
2018-11-04T16:53:17.661Z,78.45
2018-11-04T16:58:15.141Z,78.87
2018-11-04T17:03:12.598Z,78.50
2018-11-04T17:08:10.109Z,79.08
2018-11-04T17:13:07.580Z,78.49
2018-11-04T17:18:05.173Z,79.44
2018-11-04T17:23:02.716Z,78.80
2018-11-04T17:28:00.213Z,79.16
2018-11-04T17:32:57.696Z,79.23
2018-11-04T17:37:55.349Z,79.11
2018-11-04T17:42:53.029Z,78.75
2018-11-04T17:47:50.549Z,79.34
2018-11-04T17:52:48.019Z,79.26
2018-11-04T17:57:45.535Z,79.93
2018-11-04T18:02:43.303Z,79.63
2018-11-04T18:07:41.440Z,79.56
2018-11-04T18:12:38.865Z,79.69
2018-11-04T18:17:36.318Z,79.68
2018-11-04T18:22:34.824Z,79.18
2018-11-04T18:27:32.273Z,79.36
2018-11-04T18:32:29.759Z,79.60
2018-11-04T18:37:27.373Z,80.74
2018-11-04T18:42:24.942Z,80.13
2018-11-04T18:47:22.488Z,78.97
2018-11-04T18:52:19.997Z,78.63
2018-11-04T18:57:17.541Z,79.17
2018-11-04T19:02:14.970Z,79.35
2018-11-04T19:07:12.450Z,80.27
2018-11-04T19:12:09.944Z,79.80
2018-11-04T19:17:07.374Z,79.65
2018-11-04T19:22:04.986Z,79.56
2018-11-04T19:27:02.521Z,78.89
2018-11-04T19:31:59.969Z,79.31
2018-11-04T19:36:57.466Z,79.34
2018-11-04T19:41:54.921Z,78.88
2018-11-04T19:46:53.094Z,79.11
2018-11-04T19:51:50.636Z,79.17
2018-11-04T19:56:48.161Z,79.73
2018-11-04T20:01:45.541Z,79.32
2018-11-04T20:06:45.309Z,79.81
2018-11-04T20:11:43.413Z,79.83
2018-11-04T20:16:42.021Z,79.65
2018-11-04T20:21:39.581Z,79.43
2018-11-04T20:26:37.001Z,79.87
2018-11-04T20:31:40.120Z,80.08
2018-11-04T20:36:37.684Z,79.74
2018-11-04T20:41:35.180Z,80.22
2018-11-04T20:46:33.886Z,80.19
2018-11-04T20:51:31.366Z,80.77
2018-11-04T20:56:34.320Z,80.45
2018-11-04T21:01:31.860Z,80.24
2018-11-04T21:06:29.380Z,81.17
2018-11-04T21:11:27.090Z,80.58
2018-11-04T21:16:26.469Z,81.08
2018-11-04T21:21:24.012Z,80.88
2018-11-04T21:26:21.775Z,80.82
2018-11-04T21:31:21.166Z,81.08
2018-11-04T21:36:21.476Z,80.85
2018-11-04T21:41:19.109Z,81.08
2018-11-04T21:46:23.494Z,81.61
2018-11-04T21:51:21.055Z,81.09
2018-11-04T21:56:18.506Z,81.98
2018-11-04T22:01:15.985Z,82.02
2018-11-04T22:06:13.453Z,82.05
2018-11-04T22:11:10.896Z,81.81
2018-11-04T22:16:12.541Z,82.24
2018-11-04T22:21:10.059Z,81.92
2018-11-04T22:26:07.567Z,82.03
2018-11-04T22:31:05.024Z,81.75
2018-11-04T22:36:02.501Z,81.85
2018-11-04T22:40:59.975Z,81.84
2018-11-04T22:46:06.457Z,81.96
2018-11-04T22:51:03.929Z,82.56
2018-11-04T22:56:01.417Z,82.62
2018-11-04T23:00:59.887Z,82.78
2018-11-04T23:06:01.837Z,82.47
2018-11-04T23:10:59.286Z,82.52
2018-11-04T23:16:00.703Z,83.00
2018-11-04T23:20:58.203Z,82.83
2018-11-04T23:25:55.651Z,82.59
2018-11-04T23:30:53.117Z,82.64
2018-11-04T23:35:50.552Z,83.41
2018-11-04T23:40:48.150Z,83.04
2018-11-04T23:45:47.552Z,82.89
2018-11-04T23:50:50.180Z,83.89
2018-11-04T23:55:47.606Z,83.60
